createdAt,value
2018-02-19T00:00:10.437Z,3.19
2018-02-19T00:02:36.595Z,3.19
2018-02-19T00:05:02.852Z,3.17
2018-02-19T00:07:29.050Z,3.17
2018-02-19T00:09:55.182Z,3.15
2018-02-19T00:12:21.385Z,3.13
2018-02-19T00:14:47.542Z,3.16
2018-02-19T00:17:13.764Z,3.15
2018-02-19T00:19:39.939Z,3.12
2018-02-19T00:22:06.136Z,3.09
2018-02-19T00:24:32.298Z,3.09
2018-02-19T00:26:58.532Z,3.08
2018-02-19T00:29:24.699Z,3.09
2018-02-19T00:31:50.858Z,3.07
2018-02-19T00:34:17.029Z,3.05
2018-02-19T00:36:43.208Z,2.98
2018-02-19T00:39:09.348Z,2.99
2018-02-19T00:41:35.543Z,2.98
2018-02-19T00:44:01.801Z,2.96
2018-02-19T00:46:27.999Z,2.96
2018-02-19T00:48:54.168Z,2.93
2018-02-19T00:51:20.392Z,2.92
2018-02-19T00:53:46.548Z,2.92
2018-02-19T00:56:12.756Z,2.93
2018-02-19T00:58:38.973Z,2.93
2018-02-19T01:01:05.309Z,2.91
2018-02-19T01:03:31.376Z,2.90
2018-02-19T01:05:57.600Z,2.86
2018-02-19T01:08:23.850Z,2.87
2018-02-19T01:10:50.092Z,2.87
2018-02-19T01:13:16.281Z,2.86
2018-02-19T01:15:42.455Z,2.85
2018-02-19T01:18:08.680Z,2.81
2018-02-19T01:20:34.861Z,2.80
2018-02-19T01:23:01.079Z,2.82
2018-02-19T01:25:27.269Z,2.81
2018-02-19T01:27:53.465Z,2.81
2018-02-19T01:30:19.630Z,2.80
2018-02-19T01:32:45.835Z,2.80
2018-02-19T01:35:12.091Z,2.82
2018-02-19T01:37:38.358Z,2.83
2018-02-19T01:40:04.508Z,2.83
2018-02-19T01:42:30.745Z,2.81
2018-02-19T01:44:56.915Z,2.78
2018-02-19T01:47:23.183Z,2.77
2018-02-19T01:50:01.481Z,2.75
2018-02-19T01:52:27.687Z,2.76
2018-02-19T01:54:53.838Z,2.77
2018-02-19T01:57:20.047Z,2.73
2018-02-19T01:59:46.252Z,2.70
2018-02-19T02:02:12.449Z,2.72
2018-02-19T02:04:38.710Z,2.70
2018-02-19T02:07:04.896Z,2.68
2018-02-19T02:09:31.112Z,2.67
2018-02-19T02:11:57.335Z,2.66
2018-02-19T02:14:23.469Z,2.63
2018-02-19T02:16:49.692Z,2.62
2018-02-19T02:19:15.922Z,2.60
2018-02-19T02:21:42.104Z,2.57
2018-02-19T02:24:08.303Z,2.56
2018-02-19T02:26:34.513Z,2.55
2018-02-19T02:29:00.682Z,2.53
2018-02-19T02:31:26.918Z,2.53
2018-02-19T02:33:53.102Z,2.48
2018-02-19T02:36:19.278Z,2.49
2018-02-19T02:38:45.460Z,2.49
2018-02-19T02:41:11.670Z,2.49
2018-02-19T02:43:37.852Z,2.46
2018-02-19T02:46:04.036Z,2.46
2018-02-19T02:48:37.160Z,2.48
2018-02-19T02:51:03.378Z,2.47
2018-02-19T02:53:29.510Z,2.45
2018-02-19T02:55:55.656Z,2.43
2018-02-19T02:58:21.843Z,2.42
2018-02-19T03:00:48.039Z,2.42
2018-02-19T03:03:14.213Z,2.41
2018-02-19T03:05:40.470Z,2.38
2018-02-19T03:08:06.641Z,2.35
2018-02-19T03:10:32.928Z,2.33
2018-02-19T03:12:59.093Z,2.30
2018-02-19T03:15:25.240Z,2.30
2018-02-19T03:17:51.480Z,2.28
2018-02-19T03:20:17.699Z,2.29
2018-02-19T03:22:43.870Z,2.25
2018-02-19T03:25:10.049Z,2.25
2018-02-19T03:27:36.201Z,2.23
2018-02-19T03:30:02.526Z,2.23
2018-02-19T03:32:28.691Z,2.21
2018-02-19T03:34:54.923Z,2.17
2018-02-19T03:37:21.088Z,2.18
2018-02-19T03:39:47.301Z,2.17
2018-02-19T03:42:13.479Z,2.18
2018-02-19T03:44:39.637Z,2.18
2018-02-19T03:47:05.826Z,2.18
2018-02-19T03:49:32.044Z,2.20
2018-02-19T03:51:58.282Z,2.19
2018-02-19T03:54:24.509Z,2.20
2018-02-19T03:56:50.724Z,2.22
2018-02-19T03:59:16.888Z,2.20
2018-02-19T04:01:43.132Z,2.23
2018-02-19T04:04:09.276Z,2.20
2018-02-19T04:06:35.547Z,2.19
2018-02-19T04:09:01.759Z,2.19
2018-02-19T04:11:27.983Z,2.21
2018-02-19T04:13:54.233Z,2.21
2018-02-19T04:16:20.386Z,2.19
2018-02-19T04:18:46.565Z,2.19
2018-02-19T04:21:12.796Z,2.19
2018-02-19T04:23:38.953Z,2.20
2018-02-19T04:26:05.120Z,2.17
2018-02-19T04:28:31.338Z,2.18
2018-02-19T04:30:57.590Z,2.14
2018-02-19T04:33:23.761Z,2.17
2018-02-19T04:35:49.968Z,2.17
2018-02-19T04:38:16.620Z,2.18
2018-02-19T04:40:42.852Z,2.15
2018-02-19T04:43:09.883Z,2.14
2018-02-19T04:45:46.801Z,2.14
2018-02-19T04:48:12.919Z,2.14
2018-02-19T04:50:39.139Z,2.14
2018-02-19T04:53:05.347Z,2.15
2018-02-19T04:55:31.487Z,2.14
2018-02-19T04:57:57.674Z,2.12
2018-02-19T05:00:23.904Z,2.12
2018-02-19T05:02:50.044Z,2.09
2018-02-19T05:05:16.272Z,2.10
2018-02-19T05:07:42.798Z,2.11
2018-02-19T05:10:08.984Z,2.10
2018-02-19T05:12:35.127Z,2.10
2018-02-19T05:15:01.303Z,2.05
2018-02-19T05:17:27.459Z,2.05
2018-02-19T05:19:53.674Z,2.00
2018-02-19T05:22:19.880Z,2.00
2018-02-19T05:24:46.065Z,1.95
2018-02-19T05:27:12.216Z,1.97
2018-02-19T05:29:38.414Z,1.95
2018-02-19T05:32:04.635Z,1.96
2018-02-19T05:34:30.764Z,1.96
2018-02-19T05:36:56.934Z,1.98
2018-02-19T05:39:23.194Z,1.94
2018-02-19T05:41:49.392Z,1.94
2018-02-19T05:44:15.576Z,1.91
2018-02-19T05:46:41.724Z,1.95
2018-02-19T05:49:07.954Z,1.93
2018-02-19T05:51:34.193Z,1.94
2018-02-19T05:54:00.331Z,1.92
2018-02-19T05:56:26.501Z,1.94
2018-02-19T05:58:52.721Z,1.93
2018-02-19T06:01:18.965Z,1.95
2018-02-19T06:03:45.159Z,1.93
2018-02-19T06:06:11.341Z,1.94
2018-02-19T06:08:37.574Z,1.96
2018-02-19T06:11:03.824Z,1.95
2018-02-19T06:13:29.982Z,1.96
2018-02-19T06:15:56.154Z,1.98
2018-02-19T06:18:22.398Z,1.97
2018-02-19T06:20:48.713Z,1.96
2018-02-19T06:23:15.962Z,1.93
2018-02-19T06:25:42.149Z,1.95
2018-02-19T06:28:08.346Z,1.95
2018-02-19T06:30:34.609Z,1.97
2018-02-19T06:33:00.769Z,1.92
2018-02-19T06:35:27.036Z,1.92
2018-02-19T06:37:53.227Z,1.91
2018-02-19T06:40:19.457Z,1.93
2018-02-19T06:42:46.017Z,1.93
2018-02-19T06:45:12.229Z,1.94
2018-02-19T06:47:38.473Z,1.92
2018-02-19T06:50:04.731Z,1.89
2018-02-19T06:52:30.984Z,1.90
2018-02-19T06:54:57.142Z,1.88
2018-02-19T06:57:23.398Z,1.88
2018-02-19T06:59:49.553Z,1.84
2018-02-19T07:02:15.806Z,1.84
2018-02-19T07:04:41.984Z,1.86
2018-02-19T07:07:08.141Z,1.89
2018-02-19T07:09:34.355Z,1.88
2018-02-19T07:12:00.627Z,1.84
2018-02-19T07:14:26.778Z,1.86
2018-02-19T07:16:52.997Z,1.85
2018-02-19T07:19:19.213Z,1.85
2018-02-19T07:21:45.466Z,1.88
2018-02-19T07:24:11.648Z,1.82
2018-02-19T07:26:37.797Z,1.80
2018-02-19T07:29:04.059Z,1.81
2018-02-19T07:31:30.378Z,1.79
2018-02-19T07:33:56.569Z,1.77
2018-02-19T07:36:22.761Z,1.79
2018-02-19T07:38:49.002Z,1.79
2018-02-19T07:41:15.211Z,1.80
2018-02-19T07:43:41.382Z,1.81
2018-02-19T07:46:07.619Z,1.80
2018-02-19T07:48:33.759Z,1.84
2018-02-19T07:50:59.988Z,1.86
2018-02-19T07:53:26.149Z,1.90
2018-02-19T07:55:52.284Z,1.95
2018-02-19T07:58:18.475Z,1.96
2018-02-19T08:00:44.705Z,2.00
2018-02-19T08:03:10.870Z,2.01
2018-02-19T08:05:37.084Z,2.04
2018-02-19T08:08:03.332Z,2.05
2018-02-19T08:10:29.547Z,2.07
2018-02-19T08:12:55.745Z,2.04
2018-02-19T08:15:21.897Z,2.09
2018-02-19T08:17:48.149Z,2.10
2018-02-19T08:20:14.361Z,2.15
2018-02-19T08:22:40.662Z,2.14
2018-02-19T08:25:06.869Z,2.13
2018-02-19T08:27:33.033Z,2.15
2018-02-19T08:29:59.302Z,2.11
2018-02-19T08:32:25.568Z,2.11
2018-02-19T08:34:51.725Z,2.11
2018-02-19T08:37:17.965Z,2.12
2018-02-19T08:39:44.224Z,2.15
2018-02-19T08:42:10.415Z,2.20
2018-02-19T08:44:36.579Z,2.19
2018-02-19T08:47:02.790Z,2.19
2018-02-19T08:49:28.979Z,2.23
2018-02-19T08:51:55.219Z,2.23
2018-02-19T08:54:21.424Z,2.30
2018-02-19T08:56:47.647Z,2.28
2018-02-19T08:59:13.824Z,2.30
2018-02-19T09:01:40.041Z,2.35
2018-02-19T09:04:06.255Z,2.39
2018-02-19T09:06:32.404Z,2.44
2018-02-19T09:08:58.592Z,2.43
2018-02-19T09:11:24.781Z,2.44
2018-02-19T09:13:50.894Z,2.52
2018-02-19T09:16:17.070Z,2.54
2018-02-19T09:18:43.192Z,2.55
2018-02-19T09:21:09.308Z,2.57
2018-02-19T09:23:35.444Z,2.61
2018-02-19T09:26:01.623Z,2.59
2018-02-19T09:28:27.780Z,2.54
2018-02-19T09:30:53.910Z,2.56
2018-02-19T09:33:20.039Z,2.55
2018-02-19T09:35:46.220Z,2.56
2018-02-19T09:38:12.379Z,2.53
2018-02-19T09:40:38.515Z,2.55
2018-02-19T09:43:04.675Z,2.57
2018-02-19T09:45:30.873Z,2.57
2018-02-19T09:47:57.001Z,2.60
2018-02-19T09:50:23.192Z,2.62
2018-02-19T09:52:49.326Z,2.66
2018-02-19T09:55:15.500Z,2.70
2018-02-19T09:57:41.668Z,2.71
2018-02-19T10:00:07.817Z,2.85
2018-02-19T10:02:33.940Z,2.89
2018-02-19T10:05:00.088Z,2.93
2018-02-19T10:07:26.243Z,2.93
2018-02-19T10:09:52.375Z,2.99
2018-02-19T10:12:18.500Z,3.08
2018-02-19T10:14:44.757Z,3.15
2018-02-19T10:17:10.927Z,3.18
2018-02-19T10:19:37.028Z,3.21
2018-02-19T10:22:03.130Z,3.25
2018-02-19T10:24:29.281Z,3.31
2018-02-19T10:26:55.464Z,3.30
2018-02-19T10:29:21.594Z,3.19
2018-02-19T10:31:47.728Z,3.24
2018-02-19T10:34:13.838Z,3.26
2018-02-19T10:36:39.994Z,3.35
2018-02-19T10:39:06.179Z,3.41
2018-02-19T10:41:32.302Z,3.46
2018-02-19T10:43:58.430Z,3.59
2018-02-19T10:46:24.656Z,3.65
2018-02-19T10:48:50.759Z,3.69
2018-02-19T10:51:16.903Z,3.76
2018-02-19T10:53:43.053Z,3.82
2018-02-19T10:56:09.231Z,3.87
2018-02-19T10:58:35.389Z,4.00
2018-02-19T11:01:01.542Z,3.98
2018-02-19T11:03:27.676Z,4.01
2018-02-19T11:05:53.838Z,4.05
2018-02-19T11:08:20.021Z,4.03
2018-02-19T11:10:46.108Z,4.11
2018-02-19T11:13:12.228Z,4.20
2018-02-19T11:15:38.398Z,4.26
2018-02-19T11:18:04.513Z,4.34
2018-02-19T11:20:30.723Z,4.31
2018-02-19T11:22:56.890Z,4.29
2018-02-19T11:25:23.141Z,4.32
2018-02-19T11:27:49.380Z,4.33
2018-02-19T11:30:15.535Z,4.38
2018-02-19T11:32:41.714Z,4.45
2018-02-19T11:35:07.953Z,4.46
2018-02-19T11:37:34.211Z,4.35
2018-02-19T11:40:00.446Z,4.36
2018-02-19T11:42:26.616Z,4.33
2018-02-19T11:44:52.784Z,4.35
2018-02-19T11:47:19.009Z,4.38
2018-02-19T11:49:45.171Z,4.45
2018-02-19T11:52:11.384Z,4.44
2018-02-19T11:54:37.630Z,4.42
2018-02-19T11:57:03.959Z,4.45
2018-02-19T11:59:30.147Z,4.46
2018-02-19T12:01:56.315Z,4.35
2018-02-19T12:04:22.514Z,4.33
2018-02-19T12:06:48.728Z,4.27
2018-02-19T12:09:14.998Z,4.31
2018-02-19T12:11:41.164Z,4.35
2018-02-19T12:14:07.330Z,4.39
2018-02-19T12:16:33.601Z,4.46
2018-02-19T12:18:59.798Z,4.44
2018-02-19T12:21:26.008Z,4.42
2018-02-19T12:23:52.270Z,4.44
2018-02-19T12:26:18.499Z,4.48
2018-02-19T12:28:44.640Z,4.48
2018-02-19T12:31:10.791Z,4.51
2018-02-19T12:33:36.981Z,4.51
2018-02-19T12:36:03.203Z,4.53
2018-02-19T12:38:29.424Z,4.51
2018-02-19T12:40:55.651Z,4.51
2018-02-19T12:43:28.685Z,4.53
2018-02-19T12:45:54.820Z,4.46
2018-02-19T12:48:21.039Z,4.51
2018-02-19T12:50:47.272Z,4.53
2018-02-19T12:53:13.430Z,4.58
2018-02-19T12:55:39.581Z,4.64
2018-02-19T12:58:05.750Z,4.68
2018-02-19T13:00:31.938Z,4.73
2018-02-19T13:02:58.083Z,4.75
2018-02-19T13:05:24.299Z,4.84
2018-02-19T13:07:50.499Z,4.85
2018-02-19T13:10:16.685Z,4.89
2018-02-19T13:12:42.827Z,4.94
2018-02-19T13:15:08.991Z,4.95
2018-02-19T13:17:35.133Z,4.99
2018-02-19T13:20:01.334Z,4.94
2018-02-19T13:22:27.477Z,4.95
2018-02-19T13:24:53.594Z,4.95
2018-02-19T13:27:19.785Z,5.08
2018-02-19T13:29:45.988Z,5.03
2018-02-19T13:32:12.120Z,5.06
2018-02-19T13:34:38.285Z,5.10
2018-02-19T13:37:04.416Z,5.15
2018-02-19T13:39:30.621Z,5.12
2018-02-19T13:41:56.838Z,5.08
2018-02-19T13:44:23.017Z,5.00
2018-02-19T13:46:49.162Z,5.02
2018-02-19T13:49:15.357Z,5.03
2018-02-19T13:51:41.561Z,5.06
2018-02-19T13:54:07.788Z,5.06
2018-02-19T13:56:33.972Z,5.07
2018-02-19T13:59:00.154Z,5.03
2018-02-19T14:01:26.403Z,5.09
2018-02-19T14:03:52.548Z,5.04
2018-02-19T14:06:18.682Z,4.99
2018-02-19T14:08:44.954Z,4.94
2018-02-19T14:11:11.228Z,4.99
2018-02-19T14:13:37.422Z,5.03
2018-02-19T14:16:03.594Z,5.10
2018-02-19T14:18:29.777Z,5.11
2018-02-19T14:20:56.011Z,5.12
2018-02-19T14:23:22.196Z,5.10
2018-02-19T14:25:48.376Z,5.08
2018-02-19T14:28:14.583Z,5.07
2018-02-19T14:30:40.805Z,5.11
2018-02-19T14:33:06.945Z,5.12
2018-02-19T14:35:33.104Z,5.06
2018-02-19T14:37:59.316Z,5.06
2018-02-19T14:40:25.493Z,5.00
2018-02-19T14:42:51.634Z,5.01
2018-02-19T14:45:17.823Z,4.99
2018-02-19T14:47:43.977Z,4.95
2018-02-19T14:50:10.177Z,4.94
2018-02-19T14:52:36.471Z,4.97
2018-02-19T14:55:02.688Z,4.97
2018-02-19T14:57:28.816Z,4.97
2018-02-19T14:59:54.987Z,4.97
2018-02-19T15:02:21.156Z,4.98
2018-02-19T15:04:47.289Z,4.92
2018-02-19T15:07:13.602Z,4.87
2018-02-19T15:09:39.889Z,4.90
2018-02-19T15:12:06.089Z,4.91
2018-02-19T15:14:32.254Z,4.93
2018-02-19T15:16:58.435Z,4.86
2018-02-19T15:19:24.588Z,4.90
2018-02-19T15:21:50.803Z,4.91
2018-02-19T15:24:16.928Z,4.89
2018-02-19T15:26:43.064Z,4.84
2018-02-19T15:29:09.251Z,4.76
2018-02-19T15:31:35.441Z,4.76
2018-02-19T15:34:01.632Z,4.74
2018-02-19T15:36:27.765Z,4.71
2018-02-19T15:38:53.967Z,4.75
2018-02-19T15:41:20.155Z,4.75
2018-02-19T15:43:46.383Z,4.73
2018-02-19T15:46:12.498Z,4.74
2018-02-19T15:48:38.700Z,4.71
2018-02-19T15:51:04.881Z,4.70
2018-02-19T15:53:31.026Z,4.68
2018-02-19T15:55:57.182Z,4.67
2018-02-19T15:58:23.315Z,4.63
2018-02-19T16:00:49.513Z,4.65
2018-02-19T16:03:15.701Z,4.66
2018-02-19T16:05:41.852Z,4.66
2018-02-19T16:08:08.106Z,4.63
2018-02-19T16:10:34.265Z,4.62
2018-02-19T16:13:00.405Z,4.60
2018-02-19T16:15:26.596Z,4.59
2018-02-19T16:17:52.718Z,4.59
2018-02-19T16:20:18.864Z,4.60
2018-02-19T16:22:45.889Z,4.59
2018-02-19T16:25:12.027Z,4.59
2018-02-19T16:27:38.174Z,4.57
2018-02-19T16:30:04.373Z,4.56
2018-02-19T16:32:30.615Z,4.56
2018-02-19T16:34:56.866Z,4.58
2018-02-19T16:37:23.061Z,4.55
2018-02-19T16:39:49.292Z,4.53
2018-02-19T16:42:15.452Z,4.53
2018-02-19T16:44:41.601Z,4.53
2018-02-19T16:47:07.797Z,4.50
2018-02-19T16:49:33.925Z,4.48
2018-02-19T16:52:00.156Z,4.48
2018-02-19T16:54:26.312Z,4.50
2018-02-19T16:56:52.454Z,4.45
2018-02-19T16:59:18.616Z,4.47
2018-02-19T17:01:44.840Z,4.47
2018-02-19T17:04:11.006Z,4.46
2018-02-19T17:06:37.151Z,4.46
2018-02-19T17:09:03.403Z,4.45
2018-02-19T17:11:29.598Z,4.45
2018-02-19T17:13:55.745Z,4.46
2018-02-19T17:16:21.926Z,4.44
2018-02-19T17:18:48.081Z,4.44
2018-02-19T17:21:17.204Z,4.42
2018-02-19T17:23:43.412Z,4.42
2018-02-19T17:26:09.559Z,4.42
2018-02-19T17:28:35.708Z,4.40
2018-02-19T17:31:01.960Z,4.41
2018-02-19T17:33:28.178Z,4.41
2018-02-19T17:35:54.387Z,4.40
2018-02-19T17:38:20.637Z,4.41
2018-02-19T17:40:46.821Z,4.40
2018-02-19T17:43:13.005Z,4.41
2018-02-19T17:45:39.152Z,4.41
2018-02-19T17:48:05.385Z,4.40
2018-02-19T17:50:31.589Z,4.40
2018-02-19T17:52:57.817Z,4.40
2018-02-19T17:55:23.974Z,4.40
2018-02-19T17:57:50.132Z,4.41
2018-02-19T18:00:16.345Z,4.42
2018-02-19T18:02:42.546Z,4.40
2018-02-19T18:05:08.717Z,4.40
2018-02-19T18:07:34.886Z,4.38
2018-02-19T18:10:01.119Z,4.38
2018-02-19T18:12:27.321Z,4.38
2018-02-19T18:14:53.517Z,4.36
2018-02-19T18:17:19.681Z,4.33
2018-02-19T18:19:45.862Z,4.33
2018-02-19T18:22:12.088Z,4.35
2018-02-19T18:24:38.250Z,4.34
2018-02-19T18:27:04.453Z,4.34
2018-02-19T18:29:30.651Z,4.32
2018-02-19T18:31:56.889Z,4.31
2018-02-19T18:34:23.093Z,4.32
2018-02-19T18:36:49.250Z,4.30
2018-02-19T18:39:15.508Z,4.29
2018-02-19T18:41:41.728Z,4.31
2018-02-19T18:44:08.005Z,4.30
2018-02-19T18:46:34.205Z,4.28
2018-02-19T18:49:00.359Z,4.26
2018-02-19T18:51:26.580Z,4.28
2018-02-19T18:53:52.795Z,4.28
2018-02-19T18:56:18.966Z,4.28
2018-02-19T18:58:45.191Z,4.28
2018-02-19T19:01:11.398Z,4.28
2018-02-19T19:03:37.614Z,4.26
2018-02-19T19:06:03.869Z,4.26
2018-02-19T19:08:42.256Z,4.26
2018-02-19T19:11:08.427Z,4.28
2018-02-19T19:13:34.646Z,4.29
2018-02-19T19:16:01.081Z,4.29
2018-02-19T19:18:27.268Z,4.30
2018-02-19T19:20:53.436Z,4.29
2018-02-19T19:23:19.958Z,4.26
2018-02-19T19:25:46.157Z,4.25
2018-02-19T19:28:12.332Z,4.22
2018-02-19T19:30:38.557Z,4.22
2018-02-19T19:33:04.810Z,4.23
2018-02-19T19:35:41.487Z,4.21
2018-02-19T19:38:15.942Z,4.21
2018-02-19T19:40:42.304Z,4.23
2018-02-19T19:43:08.558Z,4.25
2018-02-19T19:45:42.491Z,4.23
2018-02-19T19:48:08.661Z,4.25
2018-02-19T19:50:34.922Z,4.24
2018-02-19T19:53:01.537Z,4.26
2018-02-19T19:55:27.675Z,4.26
2018-02-19T19:57:53.892Z,4.27
2018-02-19T20:00:20.129Z,4.28
2018-02-19T20:03:10.051Z,4.25
2018-02-19T20:08:29.287Z,4.22
2018-02-19T20:13:57.844Z,4.23
2018-02-19T20:16:24.874Z,4.21
2018-02-19T20:19:04.040Z,4.20
2018-02-19T20:21:30.209Z,4.20
2018-02-19T20:26:54.932Z,4.17
2018-02-19T20:32:23.790Z,4.15
2018-02-19T20:34:50.043Z,4.14
2018-02-19T20:40:18.625Z,4.13
2018-02-19T20:45:37.780Z,4.14
2018-02-19T20:48:03.953Z,4.17
2018-02-19T20:50:30.164Z,4.18
2018-02-19T20:52:56.438Z,4.16
2018-02-19T20:55:22.647Z,4.17
2018-02-19T21:00:51.079Z,4.13
2018-02-19T21:03:17.293Z,4.13
2018-02-19T21:05:43.521Z,4.12
2018-02-19T21:08:09.763Z,4.14
2018-02-19T21:10:36.004Z,4.11
2018-02-19T21:13:02.185Z,4.11
2018-02-19T21:18:31.410Z,4.06
2018-02-19T21:20:57.616Z,4.08
2018-02-19T21:23:23.826Z,4.07
2018-02-19T21:28:52.963Z,4.07
2018-02-19T21:31:19.141Z,4.04
2018-02-19T21:40:00.541Z,4.03
2018-02-19T21:42:26.832Z,4.02
2018-02-19T21:44:53.029Z,4.02
2018-02-19T21:47:19.191Z,4.01
2018-02-19T21:49:45.372Z,4.01
2018-02-19T21:52:11.552Z,4.00
2018-02-19T21:57:40.287Z,4.01
2018-02-19T22:03:21.947Z,4.00
2018-02-19T22:05:48.165Z,3.99
2018-02-19T22:08:14.344Z,4.00
2018-02-19T22:10:48.524Z,3.98
2018-02-19T22:13:14.763Z,4.00
2018-02-19T22:15:47.327Z,4.01
2018-02-19T22:21:27.096Z,3.94
2018-02-19T22:26:56.170Z,3.98
2018-02-19T22:35:28.100Z,3.95
2018-02-19T22:40:57.013Z,3.98
2018-02-19T22:43:23.179Z,3.99
2018-02-19T22:51:55.194Z,3.99
2018-02-19T22:54:22.208Z,3.98
2018-02-19T22:56:48.391Z,3.98
2018-02-19T22:59:36.980Z,3.98
2018-02-19T23:02:11.040Z,3.96
2018-02-19T23:04:43.778Z,3.97
2018-02-19T23:10:13.386Z,3.95
2018-02-19T23:12:39.553Z,3.96
2018-02-19T23:21:11.101Z,3.94
2018-02-19T23:23:37.366Z,3.93
2018-02-19T23:26:03.829Z,3.96
2018-02-19T23:28:29.956Z,3.97
2018-02-19T23:30:56.128Z,3.94
2018-02-19T23:33:22.304Z,3.96
2018-02-19T23:35:48.850Z,3.95
2018-02-19T23:38:15.103Z,3.96
2018-02-19T23:40:41.233Z,3.98
2018-02-19T23:43:07.362Z,3.96
